sensor_id;sensor_type;location;lat;lon;timestamp;noise_LAeq;noise_LA_min;noise_LA_max;noise_LA01;noise_LA95
77134;Laerm;25175;50.140;18.990;2023-06-10T00:00:18;35.02;33.09;38.98;;
77134;Laerm;25175;50.140;18.990;2023-06-10T00:04:50;38.18;32.89;58.98;;
77134;Laerm;25175;50.140;18.990;2023-06-10T00:08:16;37.07;33.05;47.06;;
77134;Laerm;25175;50.140;18.990;2023-06-10T00:11:40;37.09;33.27;45.39;;
77134;Laerm;25175;50.140;18.990;2023-06-10T00:15:06;37.79;32.86;55.24;;
77134;Laerm;25175;50.140;18.990;2023-06-10T00:26:12;35.66;32.56;46.69;;
77134;Laerm;25175;50.140;18.990;2023-06-10T00:29:35;39.69;32.98;55.98;;
77134;Laerm;25175;50.140;18.990;2023-06-10T00:32:42;34.96;32.75;39.88;;
77134;Laerm;25175;50.140;18.990;2023-06-10T00:35:48;34.52;32.74;38.20;;
77134;Laerm;25175;50.140;18.990;2023-06-10T00:39:17;34.39;32.61;39.69;;
77134;Laerm;25175;50.140;18.990;2023-06-10T00:51:26;36.61;32.60;53.89;;
77134;Laerm;25175;50.140;18.990;2023-06-10T00:55:04;34.55;32.55;40.74;;
77134;Laerm;25175;50.140;18.990;2023-06-10T00:58:16;34.39;32.60;39.76;;
77134;Laerm;25175;50.140;18.990;2023-06-10T01:05:09;34.22;32.52;40.14;;
77134;Laerm;25175;50.140;18.990;2023-06-10T01:08:38;37.97;32.50;57.36;;
77134;Laerm;25175;50.140;18.990;2023-06-10T01:12:23;34.33;32.15;39.55;;
77134;Laerm;25175;50.140;18.990;2023-06-10T01:15:34;36.13;32.47;49.69;;
77134;Laerm;25175;50.140;18.990;2023-06-10T01:19:18;36.71;32.86;52.99;;
77134;Laerm;25175;50.140;18.990;2023-06-10T01:22:29;34.39;32.66;39.05;;
77134;Laerm;25175;50.140;18.990;2023-06-10T01:25:48;36.32;32.81;54.28;;
77134;Laerm;25175;50.140;18.990;2023-06-10T01:29:11;35.93;32.56;49.23;;
77134;Laerm;25175;50.140;18.990;2023-06-10T01:40:24;35.50;33.03;41.18;;
77134;Laerm;25175;50.140;18.990;2023-06-10T01:43:44;36.97;33.52;49.06;;
77134;Laerm;25175;50.140;18.990;2023-06-10T01:47:07;42.73;33.75;56.79;;
77134;Laerm;25175;50.140;18.990;2023-06-10T01:50:14;39.49;33.56;57.46;;
77134;Laerm;25175;50.140;18.990;2023-06-10T01:53:25;41.01;33.95;55.07;;
77134;Laerm;25175;50.140;18.990;2023-06-10T01:57:04;37.19;33.52;43.66;;
77134;Laerm;25175;50.140;18.990;2023-06-10T02:00:16;37.37;34.02;44.17;;
77134;Laerm;25175;50.140;18.990;2023-06-10T02:03:28;37.08;33.86;42.26;;
77134;Laerm;25175;50.140;18.990;2023-06-10T02:10:48;38.48;33.40;54.50;;
77134;Laerm;25175;50.140;18.990;2023-06-10T02:14:00;39.82;34.33;55.88;;
77134;Laerm;25175;50.140;18.990;2023-06-10T02:17:08;39.61;33.95;54.87;;
77134;Laerm;25175;50.140;18.990;2023-06-10T02:20:19;37.98;33.26;47.32;;
77134;Laerm;25175;50.140;18.990;2023-06-10T02:23:27;39.31;33.79;53.55;;
77134;Laerm;25175;50.140;18.990;2023-06-10T02:26:43;37.23;33.32;46.48;;
77134;Laerm;25175;50.140;18.990;2023-06-10T02:38:22;42.23;33.18;60.67;;
77134;Laerm;25175;50.140;18.990;2023-06-10T02:42:01;44.36;33.31;60.21;;
77134;Laerm;25175;50.140;18.990;2023-06-10T02:45:28;47.71;33.35;61.47;;
77134;Laerm;25175;50.140;18.990;2023-06-10T02:48:49;44.18;33.92;60.72;;
77134;Laerm;25175;50.140;18.990;2023-06-10T02:51:58;38.70;33.89;48.62;;
77134;Laerm;25175;50.140;18.990;2023-06-10T02:55:11;38.30;33.37;47.43;;
77134;Laerm;25175;50.140;18.990;2023-06-10T02:58:59;40.38;33.75;57.83;;
77134;Laerm;25175;50.140;18.990;2023-06-10T03:02:09;37.48;33.87;47.81;;
77134;Laerm;25175;50.140;18.990;2023-06-10T03:05:23;36.35;33.67;44.67;;
77134;Laerm;25175;50.140;18.990;2023-06-10T03:08:35;36.84;33.50;42.32;;
77134;Laerm;25175;50.140;18.990;2023-06-10T03:11:50;41.20;34.09;56.34;;
77134;Laerm;25175;50.140;18.990;2023-06-10T03:15:14;37.20;33.31;47.41;;
77134;Laerm;25175;50.140;18.990;2023-06-10T03:18:32;39.72;33.51;55.08;;
77134;Laerm;25175;50.140;18.990;2023-06-10T03:22:10;41.41;33.41;56.83;;
77134;Laerm;25175;50.140;18.990;2023-06-10T03:25:34;39.35;33.52;52.52;;
77134;Laerm;25175;50.140;18.990;2023-06-10T03:29:06;37.69;33.47;51.43;;
77134;Laerm;25175;50.140;18.990;2023-06-10T03:32:31;40.57;33.65;55.23;;
77134;Laerm;25175;50.140;18.990;2023-06-10T03:39:08;42.53;33.75;60.78;;
77134;Laerm;25175;50.140;18.990;2023-06-10T03:42:23;38.91;34.04;54.35;;
77134;Laerm;25175;50.140;18.990;2023-06-10T03:49:15;37.06;33.22;46.67;;
77134;Laerm;25175;50.140;18.990;2023-06-10T03:52:41;39.61;32.85;58.98;;
77134;Laerm;25175;50.140;18.990;2023-06-10T03:55:58;38.37;33.24;52.49;;
77134;Laerm;25175;50.140;18.990;2023-06-10T03:59:06;36.04;32.86;46.57;;
77134;Laerm;25175;50.140;18.990;2023-06-10T04:02:15;37.72;33.42;49.95;;
77134;Laerm;25175;50.140;18.990;2023-06-10T04:05:32;40.51;33.47;56.43;;
77134;Laerm;25175;50.140;18.990;2023-06-10T04:08:40;39.39;33.38;54.20;;
77134;Laerm;25175;50.140;18.990;2023-06-10T04:11:52;40.41;33.18;56.42;;
77134;Laerm;25175;50.140;18.990;2023-06-10T04:15:06;37.85;33.03;52.74;;
77134;Laerm;25175;50.140;18.990;2023-06-10T04:18:22;36.44;33.09;44.56;;
77134;Laerm;25175;50.140;18.990;2023-06-10T04:21:33;36.70;33.29;47.28;;
77134;Laerm;25175;50.140;18.990;2023-06-10T04:25:03;44.09;33.27;63.46;;
77134;Laerm;25175;50.140;18.990;2023-06-10T04:29:02;45.28;34.14;63.09;;
77134;Laerm;25175;50.140;18.990;2023-06-10T04:32:27;42.84;33.59;62.40;;
77134;Laerm;25175;50.140;18.990;2023-06-10T04:39:47;38.70;34.77;58.23;;
77134;Laerm;25175;50.140;18.990;2023-06-10T04:42:55;42.57;34.51;59.25;;
77134;Laerm;25175;50.140;18.990;2023-06-10T04:46:31;40.96;33.53;56.61;;
77134;Laerm;25175;50.140;18.990;2023-06-10T04:49:40;37.97;33.87;49.08;;
77134;Laerm;25175;50.140;18.990;2023-06-10T04:52:46;42.54;33.82;56.25;;
77134;Laerm;25175;50.140;18.990;2023-06-10T04:56:56;39.58;33.06;52.84;;
77134;Laerm;25175;50.140;18.990;2023-06-10T05:00:05;41.34;33.60;56.05;;
77134;Laerm;25175;50.140;18.990;2023-06-10T05:03:34;42.65;33.44;64.50;;
77134;Laerm;25175;50.140;18.990;2023-06-10T05:06:45;42.86;33.69;58.68;;
77134;Laerm;25175;50.140;18.990;2023-06-10T05:14:09;43.70;34.04;62.23;;
77134;Laerm;25175;50.140;18.990;2023-06-10T05:17:24;43.07;33.95;62.24;;
77134;Laerm;25175;50.140;18.990;2023-06-10T05:20:45;42.20;34.61;56.49;;
77134;Laerm;25175;50.140;18.990;2023-06-10T05:23:57;41.44;34.12;57.34;;
77134;Laerm;25175;50.140;18.990;2023-06-10T05:27:10;41.57;33.62;58.55;;
77134;Laerm;25175;50.140;18.990;2023-06-10T05:30:26;40.91;33.76;59.27;;
77134;Laerm;25175;50.140;18.990;2023-06-10T05:33:35;45.26;34.20;60.86;;
77134;Laerm;25175;50.140;18.990;2023-06-10T05:36:43;44.21;33.72;65.50;;
77134;Laerm;25175;50.140;18.990;2023-06-10T05:40:12;39.81;34.12;55.04;;
77134;Laerm;25175;50.140;18.990;2023-06-10T05:43:21;39.54;33.78;55.73;;
77134;Laerm;25175;50.140;18.990;2023-06-10T05:46:31;41.43;34.60;54.70;;
77134;Laerm;25175;50.140;18.990;2023-06-10T05:53:07;44.95;34.44;60.39;;
77134;Laerm;25175;50.140;18.990;2023-06-10T05:56:20;44.04;34.81;59.81;;
77134;Laerm;25175;50.140;18.990;2023-06-10T05:59:28;48.09;34.65;67.94;;
77134;Laerm;25175;50.140;18.990;2023-06-10T06:02:36;45.74;34.55;60.95;;
77134;Laerm;25175;50.140;18.990;2023-06-10T06:06:10;41.92;33.94;56.84;;
77134;Laerm;25175;50.140;18.990;2023-06-10T06:09:20;45.13;33.90;60.29;;
77134;Laerm;25175;50.140;18.990;2023-06-10T06:12:25;38.95;33.59;49.69;;
77134;Laerm;25175;50.140;18.990;2023-06-10T06:19:33;41.92;33.81;58.40;;
77134;Laerm;25175;50.140;18.990;2023-06-10T06:22:40;43.96;33.65;59.73;;
77134;Laerm;25175;50.140;18.990;2023-06-10T06:25:45;43.74;33.66;60.55;;
77134;Laerm;25175;50.140;18.990;2023-06-10T06:28:58;42.89;33.61;57.85;;
77134;Laerm;25175;50.140;18.990;2023-06-10T06:32:09;44.10;33.00;57.17;;
77134;Laerm;25175;50.140;18.990;2023-06-10T06:35:35;41.71;33.22;55.25;;
77134;Laerm;25175;50.140;18.990;2023-06-10T06:38:42;42.36;33.40;56.51;;
77134;Laerm;25175;50.140;18.990;2023-06-10T06:41:48;45.10;33.61;57.14;;
77134;Laerm;25175;50.140;18.990;2023-06-10T06:45:26;45.72;33.52;68.31;;
77134;Laerm;25175;50.140;18.990;2023-06-10T06:48:32;46.54;33.63;59.04;;
77134;Laerm;25175;50.140;18.990;2023-06-10T06:51:45;41.32;32.90;57.22;;
77134;Laerm;25175;50.140;18.990;2023-06-10T06:55:00;44.18;33.88;62.50;;
77134;Laerm;25175;50.140;18.990;2023-06-10T06:58:07;42.54;33.71;56.13;;
77134;Laerm;25175;50.140;18.990;2023-06-10T07:01:14;41.25;33.42;55.82;;
77134;Laerm;25175;50.140;18.990;2023-06-10T07:04:37;43.30;33.41;56.69;;
77134;Laerm;25175;50.140;18.990;2023-06-10T07:13:23;41.37;33.19;57.92;;
77134;Laerm;25175;50.140;18.990;2023-06-10T07:16:28;42.49;33.54;60.84;;
77134;Laerm;25175;50.140;18.990;2023-06-10T07:19:39;44.24;34.65;57.26;;
77134;Laerm;25175;50.140;18.990;2023-06-10T07:22:47;46.13;38.15;57.87;;
77134;Laerm;25175;50.140;18.990;2023-06-10T07:26:22;43.33;35.67;56.32;;
77134;Laerm;25175;50.140;18.990;2023-06-10T07:31:00;44.79;35.95;57.82;;
77134;Laerm;25175;50.140;18.990;2023-06-10T07:34:20;46.01;37.58;61.70;;
77134;Laerm;25175;50.140;18.990;2023-06-10T07:37:37;47.52;37.85;62.31;;
77134;Laerm;25175;50.140;18.990;2023-06-10T07:40:46;48.10;40.41;58.46;;
77134;Laerm;25175;50.140;18.990;2023-06-10T07:43:56;45.69;35.90;58.93;;
77134;Laerm;25175;50.140;18.990;2023-06-10T07:47:20;43.23;35.03;56.66;;
77134;Laerm;25175;50.140;18.990;2023-06-10T07:50:36;44.78;35.28;67.21;;
77134;Laerm;25175;50.140;18.990;2023-06-10T07:54:08;47.62;35.57;64.75;;
77134;Laerm;25175;50.140;18.990;2023-06-10T07:57:51;44.73;34.79;59.29;;
77134;Laerm;25175;50.140;18.990;2023-06-10T08:01:11;44.16;34.88;56.85;;
77134;Laerm;25175;50.140;18.990;2023-06-10T08:04:19;43.08;34.28;56.23;;
77134;Laerm;25175;50.140;18.990;2023-06-10T08:07:33;49.89;34.83;66.67;;
77134;Laerm;25175;50.140;18.990;2023-06-10T08:10:39;41.51;34.63;57.25;;
77134;Laerm;25175;50.140;18.990;2023-06-10T08:14:08;45.74;34.25;56.78;;
77134;Laerm;25175;50.140;18.990;2023-06-10T08:17:15;44.78;34.60;60.93;;
77134;Laerm;25175;50.140;18.990;2023-06-10T08:20:32;45.49;34.70;61.71;;
77134;Laerm;25175;50.140;18.990;2023-06-10T08:23:47;46.05;34.95;58.16;;
77134;Laerm;25175;50.140;18.990;2023-06-10T08:27:18;45.12;34.17;58.51;;
77134;Laerm;25175;50.140;18.990;2023-06-10T08:30:23;43.45;34.00;57.42;;
77134;Laerm;25175;50.140;18.990;2023-06-10T08:33:42;44.48;33.61;59.69;;
77134;Laerm;25175;50.140;18.990;2023-06-10T08:36:57;47.64;33.19;71.36;;
77134;Laerm;25175;50.140;18.990;2023-06-10T08:40:05;44.98;33.72;61.05;;
77134;Laerm;25175;50.140;18.990;2023-06-10T08:43:22;44.62;33.24;57.06;;
77134;Laerm;25175;50.140;18.990;2023-06-10T08:46:52;43.33;33.98;56.39;;
77134;Laerm;25175;50.140;18.990;2023-06-10T08:50:06;45.69;33.74;62.44;;
77134;Laerm;25175;50.140;18.990;2023-06-10T08:53:18;42.24;33.44;57.07;;
77134;Laerm;25175;50.140;18.990;2023-06-10T08:56:44;45.51;33.22;57.58;;
77134;Laerm;25175;50.140;18.990;2023-06-10T08:59:53;44.21;33.65;57.89;;
77134;Laerm;25175;50.140;18.990;2023-06-10T09:03:12;45.11;33.36;58.91;;
77134;Laerm;25175;50.140;18.990;2023-06-10T09:06:19;40.54;33.04;56.03;;
77134;Laerm;25175;50.140;18.990;2023-06-10T09:09:44;44.11;32.95;59.22;;
77134;Laerm;25175;50.140;18.990;2023-06-10T09:12:53;52.91;33.47;78.18;;
77134;Laerm;25175;50.140;18.990;2023-06-10T09:15:59;45.46;34.03;60.30;;
77134;Laerm;25175;50.140;18.990;2023-06-10T09:19:44;43.57;33.20;55.72;;
77134;Laerm;25175;50.140;18.990;2023-06-10T09:22:50;46.46;34.28;60.48;;
77134;Laerm;25175;50.140;18.990;2023-06-10T09:25:59;45.28;34.48;57.58;;
77134;Laerm;25175;50.140;18.990;2023-06-10T09:29:07;47.99;34.70;64.32;;
77134;Laerm;25175;50.140;18.990;2023-06-10T09:32:15;48.26;33.93;65.46;;
77134;Laerm;25175;50.140;18.990;2023-06-10T09:35:25;45.78;34.26;60.61;;
77134;Laerm;25175;50.140;18.990;2023-06-10T09:38:34;45.39;34.70;66.66;;
77134;Laerm;25175;50.140;18.990;2023-06-10T09:41:44;44.17;34.02;70.18;;
77134;Laerm;25175;50.140;18.990;2023-06-10T09:44:51;44.74;33.98;60.93;;
77134;Laerm;25175;50.140;18.990;2023-06-10T09:47:56;47.11;34.50;66.90;;
77134;Laerm;25175;50.140;18.990;2023-06-10T09:51:02;45.30;33.73;69.94;;
77134;Laerm;25175;50.140;18.990;2023-06-10T09:54:13;51.23;34.52;65.24;;
77134;Laerm;25175;50.140;18.990;2023-06-10T09:57:22;45.89;34.31;59.54;;
77134;Laerm;25175;50.140;18.990;2023-06-10T10:00:31;50.56;33.75;70.53;;
77134;Laerm;25175;50.140;18.990;2023-06-10T10:03:48;52.76;34.69;72.87;;
77134;Laerm;25175;50.140;18.990;2023-06-10T10:06:54;48.31;34.61;72.40;;
77134;Laerm;25175;50.140;18.990;2023-06-10T10:10:21;43.28;33.87;58.44;;
77134;Laerm;25175;50.140;18.990;2023-06-10T10:13:33;42.85;34.05;58.39;;
77134;Laerm;25175;50.140;18.990;2023-06-10T10:16:42;51.86;35.60;82.81;;
77134;Laerm;25175;50.140;18.990;2023-06-10T10:19:53;48.90;37.52;59.58;;
77134;Laerm;25175;50.140;18.990;2023-06-10T10:23:05;47.96;37.86;59.19;;
77134;Laerm;25175;50.140;18.990;2023-06-10T10:26:13;49.70;40.43;59.95;;
77134;Laerm;25175;50.140;18.990;2023-06-10T10:29:38;46.12;39.25;59.59;;
77134;Laerm;25175;50.140;18.990;2023-06-10T10:32:57;47.28;35.97;60.33;;
77134;Laerm;25175;50.140;18.990;2023-06-10T10:36:07;44.00;34.68;58.00;;
77134;Laerm;25175;50.140;18.990;2023-06-10T10:39:14;45.10;35.16;56.82;;
77134;Laerm;25175;50.140;18.990;2023-06-10T10:42:22;45.54;34.52;58.16;;
77134;Laerm;25175;50.140;18.990;2023-06-10T10:45:33;42.73;33.60;60.01;;
77134;Laerm;25175;50.140;18.990;2023-06-10T10:48:40;45.21;34.30;58.41;;
77134;Laerm;25175;50.140;18.990;2023-06-10T10:52:01;43.86;33.71;54.99;;
77134;Laerm;25175;50.140;18.990;2023-06-10T11:00:04;51.68;34.13;67.03;;
77134;Laerm;25175;50.140;18.990;2023-06-10T11:03:15;52.08;34.87;65.14;;
77134;Laerm;25175;50.140;18.990;2023-06-10T11:06:24;43.48;33.82;58.44;;
77134;Laerm;25175;50.140;18.990;2023-06-10T11:09:30;50.49;37.51;68.72;;
77134;Laerm;25175;50.140;18.990;2023-06-10T11:12:52;46.90;33.76;66.25;;
77134;Laerm;25175;50.140;18.990;2023-06-10T11:16:05;47.31;35.40;60.20;;
77134;Laerm;25175;50.140;18.990;2023-06-10T11:19:37;41.25;34.61;58.06;;
77134;Laerm;25175;50.140;18.990;2023-06-10T11:23:01;47.60;35.27;71.35;;
77134;Laerm;25175;50.140;18.990;2023-06-10T11:26:30;43.50;34.15;70.53;;
77134;Laerm;25175;50.140;18.990;2023-06-10T11:29:58;44.11;34.26;69.02;;
77134;Laerm;25175;50.140;18.990;2023-06-10T11:33:07;44.51;35.51;57.75;;
77134;Laerm;25175;50.140;18.990;2023-06-10T11:36:17;43.88;36.03;54.79;;
77134;Laerm;25175;50.140;18.990;2023-06-10T11:39:23;44.41;36.77;60.95;;
77134;Laerm;25175;50.140;18.990;2023-06-10T11:42:30;43.68;35.74;57.55;;
77134;Laerm;25175;50.140;18.990;2023-06-10T11:45:41;44.89;36.73;59.19;;
77134;Laerm;25175;50.140;18.990;2023-06-10T11:48:58;46.31;34.85;60.51;;
77134;Laerm;25175;50.140;18.990;2023-06-10T11:52:08;45.23;35.51;68.60;;
77134;Laerm;25175;50.140;18.990;2023-06-10T11:55:14;44.51;34.88;56.15;;
77134;Laerm;25175;50.140;18.990;2023-06-10T11:58:21;44.88;36.54;61.77;;
77134;Laerm;25175;50.140;18.990;2023-06-10T12:01:27;43.99;36.53;65.92;;
77134;Laerm;25175;50.140;18.990;2023-06-10T12:04:36;45.93;35.38;58.91;;
77134;Laerm;25175;50.140;18.990;2023-06-10T12:07:44;42.09;34.85;53.83;;
77134;Laerm;25175;50.140;18.990;2023-06-10T12:10:52;45.48;35.18;60.94;;
77134;Laerm;25175;50.140;18.990;2023-06-10T12:14:00;44.65;35.46;59.61;;
77134;Laerm;25175;50.140;18.990;2023-06-10T12:17:08;44.93;36.88;56.23;;
77134;Laerm;25175;50.140;18.990;2023-06-10T12:20:27;47.23;38.12;60.25;;
77134;Laerm;25175;50.140;18.990;2023-06-10T12:23:37;46.36;35.33;60.36;;
77134;Laerm;25175;50.140;18.990;2023-06-10T12:26:48;44.93;35.10;59.80;;
77134;Laerm;25175;50.140;18.990;2023-06-10T12:29:57;43.39;35.12;56.25;;
77134;Laerm;25175;50.140;18.990;2023-06-10T12:33:17;44.02;35.14;67.26;;
77134;Laerm;25175;50.140;18.990;2023-06-10T12:36:23;48.45;35.58;68.24;;
77134;Laerm;25175;50.140;18.990;2023-06-10T12:39:33;48.06;36.30;68.90;;
77134;Laerm;25175;50.140;18.990;2023-06-10T12:42:39;50.00;37.14;71.46;;
77134;Laerm;25175;50.140;18.990;2023-06-10T12:45:45;43.12;35.76;63.36;;
77134;Laerm;25175;50.140;18.990;2023-06-10T12:48:51;44.41;36.36;57.48;;
77134;Laerm;25175;50.140;18.990;2023-06-10T12:51:57;45.51;35.47;70.22;;
77134;Laerm;25175;50.140;18.990;2023-06-10T12:55:12;47.26;36.14;64.87;;
77134;Laerm;25175;50.140;18.990;2023-06-10T12:58:20;48.26;35.43;79.18;;
77134;Laerm;25175;50.140;18.990;2023-06-10T13:02:10;42.90;34.79;59.09;;
77134;Laerm;25175;50.140;18.990;2023-06-10T13:05:17;43.65;35.99;58.50;;
77134;Laerm;25175;50.140;18.990;2023-06-10T13:08:23;43.69;34.85;56.89;;
77134;Laerm;25175;50.140;18.990;2023-06-10T13:11:32;44.51;34.20;55.98;;
77134;Laerm;25175;50.140;18.990;2023-06-10T13:14:38;44.12;34.68;59.26;;
77134;Laerm;25175;50.140;18.990;2023-06-10T13:17:44;46.16;35.78;59.13;;
77134;Laerm;25175;50.140;18.990;2023-06-10T13:20:50;41.52;34.51;56.40;;
77134;Laerm;25175;50.140;18.990;2023-06-10T13:23:57;44.46;35.06;56.19;;
77134;Laerm;25175;50.140;18.990;2023-06-10T13:27:06;43.21;33.94;57.94;;
77134;Laerm;25175;50.140;18.990;2023-06-10T13:30:13;44.01;34.06;63.18;;
77134;Laerm;25175;50.140;18.990;2023-06-10T13:33:19;43.86;33.70;59.05;;
77134;Laerm;25175;50.140;18.990;2023-06-10T13:36:25;45.76;33.80;61.53;;
77134;Laerm;25175;50.140;18.990;2023-06-10T13:39:30;44.36;34.20;62.96;;
77134;Laerm;25175;50.140;18.990;2023-06-10T13:42:39;48.52;34.30;69.12;;
77134;Laerm;25175;50.140;18.990;2023-06-10T13:45:48;41.52;34.63;59.44;;
77134;Laerm;25175;50.140;18.990;2023-06-10T13:48:54;45.01;35.02;58.05;;
77134;Laerm;25175;50.140;18.990;2023-06-10T13:52:02;48.11;35.18;66.79;;
77134;Laerm;25175;50.140;18.990;2023-06-10T13:55:09;41.85;34.08;55.30;;
77134;Laerm;25175;50.140;18.990;2023-06-10T13:58:20;41.58;34.88;53.77;;
77134;Laerm;25175;50.140;18.990;2023-06-10T14:01:25;45.99;34.70;58.52;;
77134;Laerm;25175;50.140;18.990;2023-06-10T14:04:49;41.99;34.03;56.71;;
77134;Laerm;25175;50.140;18.990;2023-06-10T14:07:55;41.93;35.45;57.08;;
77134;Laerm;25175;50.140;18.990;2023-06-10T14:11:01;44.47;37.03;59.52;;
77134;Laerm;25175;50.140;18.990;2023-06-10T14:14:09;45.05;35.70;60.74;;
77134;Laerm;25175;50.140;18.990;2023-06-10T14:17:20;42.87;33.86;56.28;;
77134;Laerm;25175;50.140;18.990;2023-06-10T14:20:37;43.39;33.86;63.05;;
77134;Laerm;25175;50.140;18.990;2023-06-10T14:23:42;42.93;34.62;56.90;;
77134;Laerm;25175;50.140;18.990;2023-06-10T14:26:48;42.25;34.75;57.18;;
77134;Laerm;25175;50.140;18.990;2023-06-10T14:29:56;43.98;34.39;57.74;;
77134;Laerm;25175;50.140;18.990;2023-06-10T14:33:16;45.98;35.94;59.33;;
77134;Laerm;25175;50.140;18.990;2023-06-10T14:36:32;42.81;35.56;56.34;;
77134;Laerm;25175;50.140;18.990;2023-06-10T14:39:40;44.92;35.62;58.08;;
77134;Laerm;25175;50.140;18.990;2023-06-10T14:42:47;43.79;34.78;69.05;;
77134;Laerm;25175;50.140;18.990;2023-06-10T14:45:55;43.78;35.58;55.27;;
77134;Laerm;25175;50.140;18.990;2023-06-10T14:49:21;41.51;34.63;55.37;;
77134;Laerm;25175;50.140;18.990;2023-06-10T14:52:27;44.31;35.58;57.75;;
77134;Laerm;25175;50.140;18.990;2023-06-10T14:56:14;45.26;35.67;58.99;;
77134;Laerm;25175;50.140;18.990;2023-06-10T14:59:20;42.80;34.32;58.73;;
77134;Laerm;25175;50.140;18.990;2023-06-10T15:02:32;46.21;34.36;58.29;;
77134;Laerm;25175;50.140;18.990;2023-06-10T15:05:37;41.20;33.99;53.88;;
77134;Laerm;25175;50.140;18.990;2023-06-10T15:08:43;40.22;34.07;55.58;;
77134;Laerm;25175;50.140;18.990;2023-06-10T15:11:51;49.74;38.38;59.94;;
77134;Laerm;25175;50.140;18.990;2023-06-10T15:14:57;55.06;44.78;65.24;;
77134;Laerm;25175;50.140;18.990;2023-06-10T15:18:07;47.49;37.00;60.85;;
77134;Laerm;25175;50.140;18.990;2023-06-10T15:21:13;44.22;34.66;60.26;;
77134;Laerm;25175;50.140;18.990;2023-06-10T15:24:42;44.65;35.45;59.76;;
77134;Laerm;25175;50.140;18.990;2023-06-10T15:27:48;40.94;34.55;54.80;;
77134;Laerm;25175;50.140;18.990;2023-06-10T15:30:54;41.29;34.72;56.72;;
77134;Laerm;25175;50.140;18.990;2023-06-10T15:34:10;42.16;34.11;59.93;;
77134;Laerm;25175;50.140;18.990;2023-06-10T15:37:19;40.30;34.07;53.05;;
77134;Laerm;25175;50.140;18.990;2023-06-10T15:40:25;45.10;34.34;63.09;;
77134;Laerm;25175;50.140;18.990;2023-06-10T15:43:33;43.83;34.16;65.59;;
77134;Laerm;25175;50.140;18.990;2023-06-10T15:46:52;44.14;34.41;55.91;;
77134;Laerm;25175;50.140;18.990;2023-06-10T15:53:33;45.18;34.38;63.68;;
77134;Laerm;25175;50.140;18.990;2023-06-10T15:56:41;43.86;35.08;54.78;;
77134;Laerm;25175;50.140;18.990;2023-06-10T15:59:55;50.35;35.07;67.35;;
77134;Laerm;25175;50.140;18.990;2023-06-10T16:03:04;44.06;35.71;56.18;;
77134;Laerm;25175;50.140;18.990;2023-06-10T16:06:24;42.86;34.21;58.44;;
77134;Laerm;25175;50.140;18.990;2023-06-10T16:09:29;42.89;33.92;60.82;;
77134;Laerm;25175;50.140;18.990;2023-06-10T16:13:05;42.92;34.58;56.83;;
77134;Laerm;25175;50.140;18.990;2023-06-10T16:16:14;44.74;34.61;55.71;;
77134;Laerm;25175;50.140;18.990;2023-06-10T16:19:19;46.62;36.33;60.29;;
77134;Laerm;25175;50.140;18.990;2023-06-10T16:22:29;42.15;34.27;56.86;;
77134;Laerm;25175;50.140;18.990;2023-06-10T16:25:38;46.87;34.60;59.42;;
77134;Laerm;25175;50.140;18.990;2023-06-10T16:28:47;44.95;34.56;60.77;;
77134;Laerm;25175;50.140;18.990;2023-06-10T16:31:53;46.20;34.58;59.24;;
77134;Laerm;25175;50.140;18.990;2023-06-10T16:34:59;47.12;35.69;62.95;;
77134;Laerm;25175;50.140;18.990;2023-06-10T16:38:07;45.81;34.64;61.18;;
77134;Laerm;25175;50.140;18.990;2023-06-10T16:41:18;45.85;34.14;59.25;;
77134;Laerm;25175;50.140;18.990;2023-06-10T16:44:32;42.82;33.75;54.51;;
77134;Laerm;25175;50.140;18.990;2023-06-10T16:47:41;46.77;34.27;58.21;;
77134;Laerm;25175;50.140;18.990;2023-06-10T16:50:50;41.47;34.73;55.05;;
77134;Laerm;25175;50.140;18.990;2023-06-10T16:53:59;44.71;34.83;62.91;;
77134;Laerm;25175;50.140;18.990;2023-06-10T16:57:06;43.39;34.28;56.87;;
77134;Laerm;25175;50.140;18.990;2023-06-10T17:00:26;44.53;34.06;60.18;;
77134;Laerm;25175;50.140;18.990;2023-06-10T17:03:32;47.00;34.60;59.80;;
77134;Laerm;25175;50.140;18.990;2023-06-10T17:06:49;45.90;35.12;66.53;;
77134;Laerm;25175;50.140;18.990;2023-06-10T17:09:59;42.27;34.00;57.93;;
77134;Laerm;25175;50.140;18.990;2023-06-10T17:13:10;44.69;34.30;60.71;;
77134;Laerm;25175;50.140;18.990;2023-06-10T17:16:33;44.58;34.42;64.60;;
77134;Laerm;25175;50.140;18.990;2023-06-10T17:19:46;43.93;34.81;57.28;;
77134;Laerm;25175;50.140;18.990;2023-06-10T17:22:51;41.07;34.20;54.58;;
77134;Laerm;25175;50.140;18.990;2023-06-10T17:26:04;44.45;34.34;58.01;;
77134;Laerm;25175;50.140;18.990;2023-06-10T17:29:10;44.69;34.71;63.70;;
77134;Laerm;25175;50.140;18.990;2023-06-10T17:32:37;41.16;34.01;62.31;;
77134;Laerm;25175;50.140;18.990;2023-06-10T17:35:45;38.87;34.02;58.62;;
77134;Laerm;25175;50.140;18.990;2023-06-10T17:38:51;43.14;34.15;71.69;;
77134;Laerm;25175;50.140;18.990;2023-06-10T17:41:59;43.77;33.83;62.63;;
77134;Laerm;25175;50.140;18.990;2023-06-10T17:45:10;44.43;34.60;57.35;;
77134;Laerm;25175;50.140;18.990;2023-06-10T17:49:00;44.07;34.38;61.73;;
77134;Laerm;25175;50.140;18.990;2023-06-10T17:52:31;42.30;34.28;61.64;;
77134;Laerm;25175;50.140;18.990;2023-06-10T17:55:37;43.99;34.53;57.71;;
77134;Laerm;25175;50.140;18.990;2023-06-10T17:58:49;46.13;34.70;61.67;;
77134;Laerm;25175;50.140;18.990;2023-06-10T18:05:51;43.43;33.87;58.74;;
77134;Laerm;25175;50.140;18.990;2023-06-10T18:08:58;42.52;34.35;58.83;;
77134;Laerm;25175;50.140;18.990;2023-06-10T18:12:11;42.87;34.30;58.65;;
77134;Laerm;25175;50.140;18.990;2023-06-10T18:15:25;42.29;33.94;55.87;;
77134;Laerm;25175;50.140;18.990;2023-06-10T18:18:32;44.05;33.59;62.92;;
77134;Laerm;25175;50.140;18.990;2023-06-10T18:22:01;38.89;33.82;55.01;;
77134;Laerm;25175;50.140;18.990;2023-06-10T18:25:10;39.64;33.69;52.97;;
77134;Laerm;25175;50.140;18.990;2023-06-10T18:28:20;48.00;33.65;62.31;;
77134;Laerm;25175;50.140;18.990;2023-06-10T18:31:28;38.31;33.85;52.69;;
77134;Laerm;25175;50.140;18.990;2023-06-10T18:34:34;41.02;33.59;56.81;;
77134;Laerm;25175;50.140;18.990;2023-06-10T18:37:49;45.58;33.82;61.90;;
77134;Laerm;25175;50.140;18.990;2023-06-10T18:41:04;40.37;33.40;57.87;;
77134;Laerm;25175;50.140;18.990;2023-06-10T18:44:23;39.10;33.45;52.34;;
77134;Laerm;25175;50.140;18.990;2023-06-10T18:47:36;39.37;33.98;52.15;;
77134;Laerm;25175;50.140;18.990;2023-06-10T18:50:56;42.12;34.28;54.08;;
77134;Laerm;25175;50.140;18.990;2023-06-10T18:54:03;40.01;35.18;53.60;;
77134;Laerm;25175;50.140;18.990;2023-06-10T18:57:10;43.55;33.69;64.78;;
77134;Laerm;25175;50.140;18.990;2023-06-10T19:00:26;41.22;33.75;60.29;;
77134;Laerm;25175;50.140;18.990;2023-06-10T19:03:36;43.97;33.96;57.92;;
77134;Laerm;25175;50.140;18.990;2023-06-10T19:06:43;45.04;33.59;63.07;;
77134;Laerm;25175;50.140;18.990;2023-06-10T19:09:52;39.58;33.98;51.94;;
77134;Laerm;25175;50.140;18.990;2023-06-10T19:13:16;40.17;33.93;53.55;;